createdAt,value
2023-03-17T00:01:20.792Z,5.60
2023-03-17T00:03:50.489Z,5.60
2023-03-17T00:06:24.517Z,5.60
2023-03-17T00:08:53.827Z,5.50
2023-03-17T00:11:22.174Z,5.60
2023-03-17T00:13:50.597Z,5.60
2023-03-17T00:16:21.972Z,5.50
2023-03-17T00:18:51.944Z,5.50
2023-03-17T00:21:25.517Z,5.40
2023-03-17T00:23:55.322Z,5.40
2023-03-17T00:26:24.163Z,5.30
2023-03-17T00:28:54.431Z,5.20
2023-03-17T00:31:25.100Z,5.20
2023-03-17T00:33:55.010Z,5.20
2023-03-17T00:36:24.789Z,5.30
2023-03-17T00:38:54.551Z,5.40
2023-03-17T00:41:23.633Z,5.50
2023-03-17T00:43:51.721Z,5.40
2023-03-17T00:46:25.243Z,5.50
2023-03-17T00:48:54.274Z,5.50
2023-03-17T00:51:23.282Z,5.60
2023-03-17T00:53:51.772Z,5.60
2023-03-17T00:56:23.448Z,5.70
2023-03-17T00:58:51.710Z,5.60
2023-03-17T01:01:19.861Z,5.70
2023-03-17T01:03:48.613Z,5.70
2023-03-17T01:06:17.606Z,5.70
2023-03-17T01:08:46.543Z,5.80
2023-03-17T01:11:18.622Z,5.80
2023-03-17T01:13:49.636Z,5.80
2023-03-17T01:16:17.922Z,5.80
2023-03-17T01:18:46.081Z,5.90
2023-03-17T01:21:14.042Z,5.90
2023-03-17T01:23:43.639Z,5.90
2023-03-17T01:26:12.772Z,5.90
2023-03-17T01:28:41.177Z,5.90
2023-03-17T01:31:10.692Z,5.90
2023-03-17T01:33:38.653Z,6.00
2023-03-17T01:36:07.515Z,5.90
2023-03-17T01:38:35.844Z,5.90
2023-03-17T01:41:04.106Z,6.00
2023-03-17T01:43:32.664Z,6.10
2023-03-17T01:46:20.816Z,6.10
2023-03-17T01:48:57.489Z,6.20
2023-03-17T01:51:31.836Z,6.10
2023-03-17T01:54:01.101Z,6.10
2023-03-17T01:56:30.166Z,6.10
2023-03-17T01:59:00.720Z,6.10
2023-03-17T02:01:34.871Z,6.10
2023-03-17T02:04:03.258Z,6.10
2023-03-17T02:06:32.017Z,6.10
2023-03-17T02:09:00.644Z,6.20
2023-03-17T02:11:30.080Z,6.20
2023-03-17T02:13:58.066Z,6.30
2023-03-17T02:16:26.623Z,6.30
2023-03-17T02:18:56.096Z,6.30
2023-03-17T02:21:34.507Z,6.30
2023-03-17T02:24:05.749Z,6.40
2023-03-17T02:26:36.164Z,6.40
2023-03-17T02:29:05.322Z,6.40
2023-03-17T02:31:34.667Z,6.40
2023-03-17T02:34:02.980Z,6.50
2023-03-17T02:36:32.351Z,6.50
2023-03-17T02:39:00.215Z,6.60
2023-03-17T02:41:31.199Z,6.50
2023-03-17T02:43:59.125Z,6.50
2023-03-17T02:46:27.440Z,6.50
2023-03-17T02:48:56.643Z,6.50
2023-03-17T02:51:25.212Z,6.50
2023-03-17T02:53:54.477Z,6.50
2023-03-17T02:56:22.602Z,6.60
2023-03-17T02:58:50.943Z,6.60
2023-03-17T03:01:19.131Z,6.60
2023-03-17T03:03:47.302Z,6.60
2023-03-17T03:06:15.332Z,6.60
2023-03-17T03:08:43.315Z,6.60
2023-03-17T03:11:12.857Z,6.60
2023-03-17T03:13:40.786Z,6.70
2023-03-17T03:16:09.633Z,6.60
2023-03-17T03:18:38.086Z,6.50
2023-03-17T03:21:06.593Z,6.40
2023-03-17T03:23:34.947Z,6.30
2023-03-17T03:26:03.628Z,6.20
2023-03-17T03:28:33.357Z,6.10
2023-03-17T03:31:01.321Z,6.00
2023-03-17T03:33:29.439Z,6.00
2023-03-17T03:35:58.100Z,6.00
2023-03-17T03:38:26.632Z,6.00
2023-03-17T03:40:54.599Z,5.90
2023-03-17T03:43:24.081Z,6.00
2023-03-17T03:45:54.559Z,6.00
2023-03-17T03:48:23.091Z,6.00
2023-03-17T03:50:51.312Z,5.90
2023-03-17T03:53:19.162Z,5.80
2023-03-17T03:55:47.386Z,5.80
2023-03-17T03:58:15.648Z,5.80
2023-03-17T04:00:43.548Z,5.80
2023-03-17T04:03:12.895Z,5.80
2023-03-17T04:05:40.882Z,5.90
2023-03-17T04:08:09.113Z,5.80
2023-03-17T04:10:37.108Z,5.80
2023-03-17T04:13:05.109Z,5.70
2023-03-17T04:15:33.028Z,5.50
2023-03-17T04:18:01.100Z,5.50
2023-03-17T04:20:30.637Z,5.40
2023-03-17T04:22:58.668Z,5.40
2023-03-17T04:25:26.976Z,5.30
2023-03-17T04:27:54.924Z,5.20
2023-03-17T04:30:24.076Z,5.20
2023-03-17T04:32:52.130Z,5.10
2023-03-17T04:35:22.363Z,5.10
2023-03-17T04:37:52.038Z,5.10
2023-03-17T04:40:20.855Z,5.10
2023-03-17T04:42:48.945Z,5.00
2023-03-17T04:45:16.951Z,5.10
2023-03-17T04:47:46.076Z,5.10
2023-03-17T04:50:15.450Z,5.10
2023-03-17T04:52:43.534Z,5.10
2023-03-17T04:55:12.943Z,5.10
2023-03-17T04:57:40.980Z,5.10
2023-03-17T05:00:11.729Z,5.10
2023-03-17T05:02:39.977Z,5.00
2023-03-17T05:05:08.522Z,5.00
2023-03-17T05:07:36.471Z,4.90
2023-03-17T05:10:05.609Z,4.90
2023-03-17T05:12:34.960Z,4.90
2023-03-17T05:15:02.854Z,4.80
2023-03-17T05:17:31.012Z,4.70
2023-03-17T05:19:58.849Z,4.70
2023-03-17T05:22:27.094Z,4.60
2023-03-17T05:24:54.996Z,4.60
2023-03-17T05:27:22.945Z,4.60
2023-03-17T05:29:52.515Z,4.60
2023-03-17T05:32:20.900Z,4.50
2023-03-17T05:34:49.010Z,4.60
2023-03-17T05:37:17.414Z,4.60
2023-03-17T05:39:45.330Z,4.60
2023-03-17T05:42:13.835Z,4.60
2023-03-17T05:44:41.743Z,4.50
2023-03-17T05:47:11.198Z,4.30
2023-03-17T05:49:39.104Z,4.20
2023-03-17T05:52:07.552Z,4.10
2023-03-17T05:54:35.461Z,4.00
2023-03-17T05:57:03.910Z,4.00
2023-03-17T05:59:32.071Z,3.90
2023-03-17T06:02:00.128Z,3.90
2023-03-17T06:04:29.398Z,3.90
2023-03-17T06:06:57.503Z,3.90
2023-03-17T06:09:25.566Z,3.90
2023-03-17T06:11:53.473Z,3.90
2023-03-17T06:14:21.448Z,3.90
2023-03-17T06:16:49.354Z,4.10
2023-03-17T06:19:17.302Z,4.30
2023-03-17T06:21:46.609Z,4.50
2023-03-17T06:24:14.483Z,4.60
2023-03-17T06:26:43.509Z,4.60
2023-03-17T06:29:12.927Z,4.60
2023-03-17T06:31:42.153Z,4.70
2023-03-17T06:34:10.101Z,4.80
2023-03-17T06:36:39.165Z,4.90
2023-03-17T06:39:09.572Z,4.90
2023-03-17T06:41:37.809Z,4.90
2023-03-17T06:44:07.312Z,5.00
2023-03-17T06:46:36.100Z,4.90
2023-03-17T06:49:04.695Z,4.90
2023-03-17T06:51:34.147Z,5.00
2023-03-17T06:54:02.361Z,5.00
2023-03-17T06:56:32.037Z,5.10
2023-03-17T06:59:00.134Z,5.20
2023-03-17T07:01:28.876Z,5.30
2023-03-17T07:03:57.105Z,5.50
2023-03-17T07:06:24.971Z,5.80
2023-03-17T07:08:52.825Z,6.00
2023-03-17T07:11:20.799Z,6.20
2023-03-17T07:13:50.930Z,6.50
2023-03-17T07:16:20.934Z,6.70
2023-03-17T07:18:50.541Z,6.90
2023-03-17T07:21:18.667Z,7.10
2023-03-17T07:23:46.613Z,7.30
2023-03-17T07:26:14.535Z,7.40
2023-03-17T07:28:42.487Z,7.60
2023-03-17T07:31:14.249Z,7.70
2023-03-17T07:33:42.558Z,7.90
2023-03-17T07:36:10.898Z,8.00
2023-03-17T07:38:39.072Z,8.10
2023-03-17T07:41:09.915Z,8.20
2023-03-17T07:43:38.942Z,8.30
2023-03-17T07:46:07.479Z,8.50
2023-03-17T07:48:40.728Z,8.50
2023-03-17T07:51:12.232Z,8.60
2023-03-17T07:53:40.433Z,8.70
2023-03-17T07:56:09.683Z,8.80
2023-03-17T07:58:37.645Z,8.90
2023-03-17T08:01:05.980Z,8.80
2023-03-17T08:03:34.345Z,8.90
2023-03-17T08:06:03.760Z,9.10
2023-03-17T08:08:31.649Z,9.10
2023-03-17T08:11:03.811Z,9.30
2023-03-17T08:13:32.702Z,9.40
2023-03-17T08:16:01.009Z,9.50
2023-03-17T08:18:29.030Z,9.70
2023-03-17T08:20:56.859Z,9.80
2023-03-17T08:23:26.559Z,9.90
2023-03-17T08:25:58.192Z,9.90
2023-03-17T08:28:27.115Z,10.10
2023-03-17T08:30:55.806Z,10.10
2023-03-17T08:33:23.885Z,10.20
2023-03-17T08:35:52.067Z,10.40
2023-03-17T08:38:20.085Z,10.50
2023-03-17T08:40:50.907Z,10.70
2023-03-17T08:43:18.912Z,10.80
2023-03-17T08:45:46.864Z,11.00
2023-03-17T08:48:15.209Z,11.20
2023-03-17T08:50:47.173Z,11.50
2023-03-17T08:53:15.225Z,11.70
2023-03-17T08:55:43.080Z,12.00
2023-03-17T08:58:12.309Z,12.20
2023-03-17T09:00:40.786Z,12.50
2023-03-17T09:03:08.788Z,12.80
2023-03-17T09:05:38.599Z,13.00
2023-03-17T09:08:07.552Z,13.30
2023-03-17T09:10:35.590Z,13.60
2023-03-17T09:13:04.597Z,13.90
2023-03-17T09:15:34.773Z,14.20
2023-03-17T09:18:03.169Z,14.60
2023-03-17T09:20:31.390Z,14.90
2023-03-17T09:23:00.093Z,15.20
2023-03-17T09:25:28.394Z,15.40
2023-03-17T09:27:56.717Z,15.60
2023-03-17T09:30:26.881Z,15.70
2023-03-17T09:32:56.313Z,15.70
2023-03-17T09:35:25.651Z,15.90
2023-03-17T09:37:53.535Z,16.10
2023-03-17T09:40:25.745Z,16.30
2023-03-17T09:43:02.036Z,16.50
2023-03-17T09:45:34.597Z,16.70
2023-03-17T09:48:31.362Z,16.90
2023-03-17T09:51:02.892Z,17.10
2023-03-17T09:53:35.804Z,17.50
2023-03-17T09:56:08.758Z,17.90
2023-03-17T09:58:38.650Z,18.20
2023-03-17T10:01:06.812Z,18.50
2023-03-17T10:03:37.401Z,18.40
2023-03-17T10:06:37.520Z,18.60
2023-03-17T10:09:19.589Z,18.80
2023-03-17T10:11:49.472Z,18.70
2023-03-17T10:14:43.104Z,18.60
2023-03-17T10:17:17.952Z,18.30
2023-03-17T10:19:56.113Z,18.10
2023-03-17T10:22:29.730Z,18.00
2023-03-17T10:25:04.857Z,17.90
2023-03-17T10:27:36.510Z,17.80
2023-03-17T10:30:05.712Z,17.70
2023-03-17T10:32:39.440Z,17.50
2023-03-17T10:35:11.621Z,17.50
2023-03-17T10:37:42.584Z,17.40
2023-03-17T10:40:22.058Z,17.40
2023-03-17T10:42:54.407Z,17.40
2023-03-17T10:45:28.792Z,17.50
2023-03-17T10:47:58.187Z,17.80
2023-03-17T10:50:31.398Z,18.00
2023-03-17T10:53:01.928Z,18.20
2023-03-17T10:55:33.330Z,18.30
2023-03-17T10:58:05.976Z,18.40
2023-03-17T11:00:37.316Z,18.70
2023-03-17T11:03:13.117Z,19.00
2023-03-17T11:05:54.930Z,19.40
2023-03-17T11:08:23.166Z,19.70
2023-03-17T11:10:57.340Z,20.00
2023-03-17T11:13:30.613Z,20.10
2023-03-17T11:16:10.608Z,20.10
2023-03-17T11:18:39.898Z,20.00
2023-03-17T11:21:12.401Z,19.90
2023-03-17T11:23:53.254Z,19.90
2023-03-17T11:26:46.761Z,19.90
2023-03-17T11:29:58.325Z,19.90
2023-03-17T11:32:29.509Z,19.80
2023-03-17T11:35:23.571Z,19.60
2023-03-17T11:38:12.240Z,19.50
2023-03-17T11:40:55.453Z,19.50
2023-03-17T11:43:30.354Z,19.70
2023-03-17T11:46:05.664Z,19.90
2023-03-17T11:48:45.808Z,20.00
2023-03-17T11:51:22.850Z,20.20
2023-03-17T11:54:06.571Z,20.50
2023-03-17T11:56:40.310Z,20.60
2023-03-17T11:59:16.837Z,20.90
2023-03-17T12:01:54.771Z,21.30
2023-03-17T12:04:30.390Z,21.40
2023-03-17T12:07:04.504Z,21.30
2023-03-17T12:09:39.512Z,21.10
2023-03-17T12:12:10.611Z,20.80
2023-03-17T12:14:44.129Z,20.60
2023-03-17T12:17:19.422Z,20.60
2023-03-17T12:20:07.127Z,20.60
2023-03-17T12:22:41.470Z,20.50
2023-03-17T12:25:18.035Z,20.40
2023-03-17T12:27:53.286Z,20.60
2023-03-17T12:30:30.188Z,20.60
2023-03-17T12:33:07.816Z,20.70
2023-03-17T12:35:38.654Z,20.70
2023-03-17T12:38:12.870Z,20.90
2023-03-17T12:40:59.640Z,21.00
2023-03-17T12:43:39.899Z,21.10
2023-03-17T12:46:49.595Z,21.10
2023-03-17T12:49:38.146Z,21.00
2023-03-17T12:52:22.656Z,21.00
2023-03-17T12:54:53.660Z,21.10
2023-03-17T12:57:28.584Z,21.10
2023-03-17T13:00:01.856Z,21.10
2023-03-17T13:02:38.325Z,21.10
2023-03-17T13:05:10.060Z,21.20
2023-03-17T13:07:45.393Z,21.30
2023-03-17T13:10:20.544Z,21.40
2023-03-17T13:13:09.850Z,21.40
2023-03-17T13:15:53.758Z,21.10
2023-03-17T13:18:53.093Z,21.10
2023-03-17T13:21:26.305Z,21.10
2023-03-17T13:24:21.875Z,21.20
2023-03-17T13:26:56.397Z,21.40
2023-03-17T13:29:38.342Z,21.40
2023-03-17T13:32:39.056Z,21.50
2023-03-17T13:35:22.192Z,21.40
2023-03-17T13:38:25.017Z,21.40
2023-03-17T13:41:15.865Z,21.40
2023-03-17T13:43:57.488Z,21.30
2023-03-17T13:46:35.285Z,21.30
2023-03-17T13:49:14.764Z,21.50
2023-03-17T13:51:52.769Z,21.60
2023-03-17T13:54:35.007Z,21.60
2023-03-17T13:57:25.455Z,21.70
2023-03-17T14:00:01.467Z,21.70
2023-03-17T14:02:35.024Z,21.60
2023-03-17T14:05:06.232Z,21.50
2023-03-17T14:07:45.598Z,21.40
2023-03-17T14:10:19.311Z,21.40
2023-03-17T14:12:55.284Z,21.40
2023-03-17T14:15:29.635Z,21.40
2023-03-17T14:18:04.363Z,21.50
2023-03-17T14:20:33.138Z,21.60
2023-03-17T14:23:03.025Z,21.80
2023-03-17T14:25:34.401Z,21.80
2023-03-17T14:28:09.940Z,21.80
2023-03-17T14:30:39.476Z,21.80
2023-03-17T14:33:22.507Z,21.80
2023-03-17T14:35:53.055Z,22.00
2023-03-17T14:38:23.376Z,22.10
2023-03-17T14:41:00.581Z,22.00
2023-03-17T14:43:28.533Z,22.00
2023-03-17T14:46:02.463Z,22.00
2023-03-17T14:48:33.987Z,22.00
2023-03-17T14:51:07.025Z,22.00
2023-03-17T14:53:36.246Z,22.00
2023-03-17T14:56:04.505Z,21.90
2023-03-17T14:58:37.440Z,21.90
2023-03-17T15:01:08.174Z,21.80
2023-03-17T15:03:42.660Z,21.80
2023-03-17T15:06:24.269Z,21.70
2023-03-17T15:08:52.768Z,21.70
2023-03-17T15:11:24.400Z,21.80
2023-03-17T15:13:57.011Z,21.80
2023-03-17T15:16:28.453Z,21.70
2023-03-17T15:19:19.387Z,21.70
2023-03-17T15:21:47.913Z,21.60
2023-03-17T15:24:29.864Z,21.40
2023-03-17T15:27:06.517Z,21.30
2023-03-17T15:29:35.015Z,21.30
2023-03-17T15:32:15.268Z,21.30
2023-03-17T15:34:44.752Z,21.20
2023-03-17T15:37:20.550Z,21.00
2023-03-17T15:39:49.940Z,20.90
2023-03-17T15:42:20.041Z,20.90
2023-03-17T15:44:48.300Z,20.90
2023-03-17T15:47:17.417Z,20.80
2023-03-17T15:49:47.999Z,20.70
2023-03-17T15:52:18.374Z,20.70
2023-03-17T15:54:46.843Z,20.60
2023-03-17T15:57:15.121Z,20.60
2023-03-17T15:59:43.075Z,20.50
2023-03-17T16:02:30.553Z,20.50
2023-03-17T16:05:01.338Z,20.40
2023-03-17T16:07:30.880Z,20.30
2023-03-17T16:09:59.047Z,20.20
2023-03-17T16:12:27.656Z,20.20
2023-03-17T16:14:55.764Z,20.10
2023-03-17T16:17:28.897Z,20.10
2023-03-17T16:19:59.664Z,20.10
2023-03-17T16:22:39.961Z,20.00
2023-03-17T16:25:24.873Z,20.00
2023-03-17T16:27:54.376Z,19.90
2023-03-17T16:30:24.595Z,19.80
2023-03-17T16:32:53.176Z,19.80
2023-03-17T16:35:24.372Z,19.70
2023-03-17T16:37:54.287Z,19.60
2023-03-17T16:40:25.079Z,19.60
2023-03-17T16:42:53.101Z,19.40
2023-03-17T16:45:27.028Z,19.30
2023-03-17T16:47:56.042Z,19.20
2023-03-17T16:50:27.353Z,19.00
2023-03-17T16:52:55.567Z,18.60
2023-03-17T16:55:24.849Z,18.30
2023-03-17T16:57:55.915Z,18.00
2023-03-17T17:00:26.464Z,17.80
2023-03-17T17:02:54.622Z,17.70
2023-03-17T17:05:26.143Z,17.50
2023-03-17T17:07:56.852Z,17.40
2023-03-17T17:10:26.747Z,17.20
2023-03-17T17:12:55.610Z,17.10
2023-03-17T17:15:24.549Z,17.10
2023-03-17T17:17:56.022Z,17.00
2023-03-17T17:20:29.072Z,17.00
2023-03-17T17:22:58.353Z,16.90
2023-03-17T17:25:27.343Z,16.80
2023-03-17T17:27:56.372Z,16.60
2023-03-17T17:30:28.176Z,16.60
2023-03-17T17:32:57.827Z,16.50
2023-03-17T17:35:31.986Z,16.50
2023-03-17T17:38:01.256Z,16.50
2023-03-17T17:40:29.735Z,16.50
2023-03-17T17:42:58.626Z,16.50
2023-03-17T17:45:26.935Z,16.40
2023-03-17T17:47:55.160Z,16.30
2023-03-17T17:50:28.170Z,16.20
2023-03-17T17:53:02.651Z,16.20
2023-03-17T17:55:30.606Z,16.10
2023-03-17T17:57:58.752Z,16.00
2023-03-17T18:00:26.736Z,15.90
2023-03-17T18:02:54.835Z,15.90
2023-03-17T18:05:23.258Z,15.70
2023-03-17T18:07:52.623Z,15.80
2023-03-17T18:10:24.275Z,15.70
2023-03-17T18:12:52.294Z,15.60
2023-03-17T18:15:21.843Z,15.60
2023-03-17T18:17:50.079Z,15.60
2023-03-17T18:20:21.603Z,15.50
2023-03-17T18:22:50.265Z,15.40
2023-03-17T18:25:20.696Z,15.30
2023-03-17T18:27:49.089Z,15.20
2023-03-17T18:30:23.172Z,14.90
2023-03-17T18:32:53.897Z,14.80
2023-03-17T18:35:27.035Z,14.60
2023-03-17T18:37:56.440Z,14.50
2023-03-17T18:40:26.528Z,14.40
2023-03-17T18:42:54.804Z,14.40
2023-03-17T18:45:22.842Z,14.30
2023-03-17T18:47:50.880Z,14.30
2023-03-17T18:50:21.778Z,14.20
2023-03-17T18:52:50.117Z,14.30
2023-03-17T18:55:18.449Z,14.30
2023-03-17T18:57:48.362Z,14.20
2023-03-17T19:00:18.557Z,14.20
2023-03-17T19:02:46.884Z,14.20
2023-03-17T19:05:15.305Z,14.10
2023-03-17T19:07:43.430Z,14.10
2023-03-17T19:10:13.928Z,14.10
2023-03-17T19:12:42.396Z,14.00
2023-03-17T19:15:13.394Z,14.00
2023-03-17T19:17:42.386Z,14.00
2023-03-17T19:20:12.264Z,14.00
2023-03-17T19:22:40.467Z,13.90
2023-03-17T19:25:09.146Z,13.80
2023-03-17T19:27:37.201Z,13.70
2023-03-17T19:30:07.021Z,13.70
2023-03-17T19:32:36.330Z,13.80
2023-03-17T19:35:04.622Z,13.70
2023-03-17T19:37:32.602Z,13.60
2023-03-17T19:40:00.695Z,13.50
2023-03-17T19:42:28.744Z,13.40
2023-03-17T19:44:56.718Z,13.30
2023-03-17T19:47:24.937Z,13.30
2023-03-17T19:49:54.727Z,13.30
2023-03-17T19:52:22.712Z,13.20
2023-03-17T19:54:50.555Z,13.20
2023-03-17T19:57:19.164Z,13.20
2023-03-17T19:59:47.240Z,13.20
2023-03-17T20:02:17.611Z,13.20
2023-03-17T20:04:45.841Z,13.10
2023-03-17T20:07:15.366Z,13.00
2023-03-17T20:09:44.558Z,12.90
2023-03-17T20:12:12.516Z,12.90
2023-03-17T20:14:40.535Z,12.80
2023-03-17T20:17:08.382Z,12.80
2023-03-17T20:19:39.230Z,12.80
2023-03-17T20:22:07.541Z,12.70
2023-03-17T20:24:38.155Z,12.60
2023-03-17T20:27:07.043Z,12.60
2023-03-17T20:29:35.105Z,12.50
2023-03-17T20:32:03.027Z,12.60
2023-03-17T20:34:31.804Z,12.60
2023-03-17T20:36:59.737Z,12.60
2023-03-17T20:39:27.866Z,12.60
2023-03-17T20:41:57.140Z,12.50
2023-03-17T20:44:25.258Z,12.40
2023-03-17T20:46:53.495Z,12.30
2023-03-17T20:49:21.967Z,12.20
2023-03-17T20:51:50.007Z,12.20
2023-03-17T20:54:18.030Z,12.10
2023-03-17T20:56:46.063Z,12.00
2023-03-17T20:59:15.364Z,12.00
2023-03-17T21:01:43.536Z,12.00
2023-03-17T21:04:15.561Z,12.10
2023-03-17T21:06:45.073Z,12.20
2023-03-17T21:09:13.186Z,12.10
2023-03-17T21:11:41.582Z,12.00
2023-03-17T21:14:15.161Z,12.00
2023-03-17T21:16:46.341Z,12.00
2023-03-17T21:19:15.968Z,12.00
2023-03-17T21:21:44.718Z,12.00
2023-03-17T21:24:25.110Z,12.00
2023-03-17T21:26:53.066Z,12.10
2023-03-17T21:29:21.293Z,12.10
2023-03-17T21:31:51.494Z,12.10
2023-03-17T21:34:19.917Z,12.00
2023-03-17T21:36:48.229Z,12.00
2023-03-17T21:39:16.608Z,12.10
2023-03-17T21:41:46.223Z,12.20
2023-03-17T21:44:15.882Z,12.20
2023-03-17T21:46:43.974Z,12.20
2023-03-17T21:49:16.020Z,12.10
2023-03-17T21:51:44.220Z,12.00
2023-03-17T21:54:12.437Z,11.90
2023-03-17T21:56:41.341Z,11.80
2023-03-17T21:59:10.878Z,11.90
2023-03-17T22:01:39.699Z,12.00
2023-03-17T22:04:08.006Z,12.00
2023-03-17T22:06:37.405Z,12.00
2023-03-17T22:09:06.297Z,12.00
2023-03-17T22:11:34.223Z,12.00
2023-03-17T22:14:02.105Z,12.00
2023-03-17T22:16:30.312Z,12.00
2023-03-17T22:18:58.533Z,11.90
2023-03-17T22:21:26.604Z,11.90
2023-03-17T22:23:55.946Z,11.90
2023-03-17T22:26:24.178Z,12.00
2023-03-17T22:28:52.422Z,12.00
2023-03-17T22:31:22.894Z,12.00
2023-03-17T22:33:54.065Z,12.00
2023-03-17T22:36:22.384Z,12.10
2023-03-17T22:38:50.873Z,12.10
2023-03-17T22:41:23.000Z,12.10
2023-03-17T22:43:51.408Z,12.10
2023-03-17T22:46:19.845Z,12.10
2023-03-17T22:48:48.666Z,12.10
2023-03-17T22:51:18.491Z,12.20
2023-03-17T22:53:46.891Z,12.30
2023-03-17T22:56:16.731Z,12.30
2023-03-17T22:58:46.745Z,12.40
2023-03-17T23:01:16.423Z,12.60
2023-03-17T23:03:45.001Z,12.70
2023-03-17T23:06:14.591Z,12.70
2023-03-17T23:08:44.131Z,12.80
2023-03-17T23:11:14.561Z,12.80
2023-03-17T23:13:42.550Z,12.90
2023-03-17T23:16:12.600Z,12.90
2023-03-17T23:18:40.908Z,13.00
2023-03-17T23:21:10.304Z,12.90
2023-03-17T23:23:39.162Z,13.00
2023-03-17T23:26:09.257Z,12.90
2023-03-17T23:28:37.433Z,12.90
2023-03-17T23:31:05.666Z,12.80
2023-03-17T23:33:34.910Z,12.80
2023-03-17T23:36:02.873Z,12.70
2023-03-17T23:38:30.974Z,12.70
2023-03-17T23:40:59.173Z,12.70
2023-03-17T23:43:27.415Z,12.70
2023-03-17T23:45:55.371Z,12.70
2023-03-17T23:48:23.744Z,12.70
2023-03-17T23:50:54.429Z,12.60
2023-03-17T23:53:23.487Z,12.60
2023-03-17T23:55:52.754Z,12.70
2023-03-17T23:58:21.330Z,12.70
